Bufflehead — 5BRB3 — position and weather

sailwx.info

Track history (hours):
 
Tides and Currents Weather Stations Pressure Air Temp Water Temp Dewpoint Dewpoint Depression Visibility Wind Speed Wind Dir Waves Ship Positions

Bufflehead

Last reported at 2018-Jul-31 19:03 UTC. Time now 2018-Aug-14 07:00 UTC.
Position N 09°33' W 079°49'.
Warning: this ship's position is 13 days out of date.

Length 177 m; draft 10.3 m.

Type: Cargo ship. MMSI: 210916000.

Date/timePositionNaut miles runAvg speedWind from/ knotsBaromVisibWave heightAir tempDewpointWater temp
2018-Jul-31 19:03N 09°33' W 079°49'114.3
2018-Jul-31 19:00N 09°32' W 079°50'713.4
2018-Jul-31 18:30N 09°28' W 079°54'611.5
2018-Jul-31 18:00N 09°22' W 079°55'4 8.7
2018-Jul-31 17:30N 09°17' W 079°55'1 1.6
2018-Jul-31 16:53N 09°16' W 079°55'0 0.5
2018-Jul-31 16:16N 09°16' W 079°55'0 0.7
2018-Jul-31 16:00N 09°16' W 079°55'2 3.0
2018-Jul-31 15:29N 09°14' W 079°55'2 1.4
2018-Jul-31 14:06N 09°13' W 079°56'0 1.3
2018-Jul-31 13:57N 09°13' W 079°56'  
Track history (hours):
 
Tides and Currents Weather Stations Pressure Air Temp Water Temp Dewpoint Dewpoint Depression Visibility Wind Speed Wind Dir Waves Ship Positions

Bufflehead

Last reported at 2018-Jul-31 19:03 UTC. Time now 2018-Aug-14 07:00 UTC.
Position N 09°33' W 079°49'.
Warning: this ship's position is 13 days out of date.

Length 177 m; draft 10.3 m.

Type: Cargo ship. MMSI: 210916000.

Date/timePositionNaut miles runAvg speedWind from/ knotsBaromVisibWave heightAir tempDewpointWater temp
2018-Jul-31 19:03N 09°33' W 079°49'114.3
2018-Jul-31 19:00N 09°32' W 079°50'713.4
2018-Jul-31 18:30N 09°28' W 079°54'611.5
2018-Jul-31 18:00N 09°22' W 079°55'4 8.7
2018-Jul-31 17:30N 09°17' W 079°55'1 1.6
2018-Jul-31 16:53N 09°16' W 079°55'0 0.5
2018-Jul-31 16:16N 09°16' W 079°55'0 0.7
2018-Jul-31 16:00N 09°16' W 079°55'2 3.0
2018-Jul-31 15:29N 09°14' W 079°55'2 1.4
2018-Jul-31 14:06N 09°13' W 079°56'0 1.3
2018-Jul-31 13:57N 09°13' W 079°56'  

Dump ship's entire track history